AirNav   Everest Fuels
 
 986 users online  

8OK2 Baker Airstrip
El Reno, Oklahoma, USA

GOING TO EL RENO?


FAA INFORMATION EFFECTIVE 03 NOVEMBER 2022

Location

FAA Identifier: 8OK2
Lat/Long: 35-28-30.1900N 097-55-43.9700W
35-28.503167N 097-55.732833W
35.4750528,-97.9288806
(estimated)
Elevation: 1370 ft. / 418 m (estimated)
Variation: 07E (1995)
From city: 3 miles S of EL RENO, OK
Time zone: UTC -6 (UTC -5 during Daylight Saving Time)
Zip code: 73036

Airport Operations

Airport use: Private use. Permission required prior to landing
Activation date: 03/1996
Control tower: no
ARTCC: FORT WORTH CENTER
FSS: MC ALESTER FLIGHT SERVICE STATION
Attendance: UNATNDD
Segmented circle: no

Airport Communications

WX AWOS-3 at RQO (4 nm W): 118.475 (405-262-0087)
WX AWOS-3 at RCE (5 nm E): 125.05 (405-354-2617)
WX AWOS-3 at HSD (13 nm NE): 120.975 (405-283-9848)
WX ASOS at PWA (14 nm E): PHONE 405-798-2013
WX ASOS at OKC (17 nm E): PHONE 405-686-4711

Nearby radio navigation aids

VOR radial/distance  VOR name  Freq  Var
PWAr248/14.2WILEY POST VOR/DME113.4008E
IRWr287/17.1WILL ROGERS VORTAC114.1007E

Airport Services

Runway Information

Runway 17/35

Dimensions: 2400 x 200 ft. / 732 x 61 m
Surface: turf
RUNWAY 17  RUNWAY 35
Traffic pattern: leftleft
Displaced threshold: no300 ft.
DSPLCD THLD MKD BY RED FLAG.
Obstructions: none3 ft. fence, 10 ft. from runway

Airport Ownership and Management from official FAA records

Ownership: Privately-owned
Owner: GLEN & KIM BAKER
PO BOX 850718
YUKON, OK 73085
Phone (405) 205-8791
Manager: GLEN BAKER
PO BOX 850718
YUKON, OK 73085
Phone (405) 205-8791

Airport Operational Statistics

Aircraft based on the field: 1
Single engine airplanes: 1
    

Additional Remarks

FOR CD CTC OKE CITY APCH AT 405-681-5683.

Instrument Procedures

There are no published instrument procedures at 8OK2.

Some nearby airports with instrument procedures:

KRQO - El Reno Regional Airport (4 nm W)
KRCE - Clarence E Page Municipal Airport (5 nm E)
KHSD - Sundance Airport (13 nm NE)
KPWA - Wiley Post Airport (14 nm E)
KOKC - Will Rogers World Airport (17 nm E)
 
Loc | Ops | Rwys | IFR | FBO | Links
Com | Nav | Svcs | Stats | Notes
Area around 8OK2 (Baker Airstrip)
 
Road maps at: MapQuest Bing Google
 
Aerial photo
No photo
 
Sectional chart

 
Airport distance calculator
Flying to Baker Airstrip? Find the distance to fly.

From to 8OK2

Sunrise and sunset
Times for 29-Nov-2022
 Local
(UTC-6)
 Zulu
(UTC)
Morning civil twilight06:5412:54
Sunrise07:2213:22
Sunset17:1823:18
Evening civil twilight17:4623:46

Current date and time
Zulu (UTC)  30-Nov-2022 01:48:25
Local (UTC-6)  29-Nov-2022 19:48:25
 
METAR
KRQO 
4nm W 
291655Z AUTO 27016KT 10SM CLR 16/04 A2969 RMK AO2 T01590042
KRCE 
5nm E 
300135Z AUTO 35016G23KT 10SM BKN025 01/M04 A3005 RMK AO2
KHSD 
13nm NE 
300135Z AUTO 34015G23KT 10SM CLR 01/M04 A3007 RMK A01
KPWA 
14nm E 
300132Z 36018G23KT 10SM SCT025 02/M05 A3005
KOKC 
17nm E 
300140Z 35026G31KT 10SM SCT024 02/M04 A3003 RMK AO2 PK WND 35033/0129 T00171044
TAF
KOKC 
17nm E 
291726Z 2918/3018 26017G24KT P6SM SKC FM292000 34018G27KT P6SM SCT090 TEMPO 3000/3003 34025G32KT FM300800 35014KT P6SM SKC FM300900 35010KT P6SM SKC
NOTAMs
Click for the latest NOTAMs
NOTAMs are issued by the DoD/FAA and will open in a separate window not controlled by AirNav.

 

 
 

Would you like to see your business listed on this page?

 If your business provides an interesting product or service to pilots, flight crews, aircraft, or users of the Baker Airstrip, you should consider listing it here.  To start the listing process, click on the button below
 
Add a business
 

Other Pages about Baker Airstrip

Update a link
 
Copyright © AirNav, LLC. All rights reserved. Privacy Policy  Contact